sensor_id;sensor_type;location;lat;lon;timestamp;temperature;humidity
18998;DHT22;9632;51.018;4.284;2023-04-29T00:01:37;13.80;99.90
18998;DHT22;9632;51.018;4.284;2023-04-29T00:04:03;13.70;99.90
18998;DHT22;9632;51.018;4.284;2023-04-29T00:06:28;13.70;99.90
18998;DHT22;9632;51.018;4.284;2023-04-29T00:08:54;13.70;99.90
18998;DHT22;9632;51.018;4.284;2023-04-29T00:11:20;13.70;99.90
18998;DHT22;9632;51.018;4.284;2023-04-29T00:13:46;13.60;99.90
18998;DHT22;9632;51.018;4.284;2023-04-29T00:16:11;13.60;99.90
18998;DHT22;9632;51.018;4.284;2023-04-29T00:18:38;13.60;99.90
18998;DHT22;9632;51.018;4.284;2023-04-29T00:21:03;13.60;99.90
18998;DHT22;9632;51.018;4.284;2023-04-29T00:23:33;13.60;99.90
18998;DHT22;9632;51.018;4.284;2023-04-29T00:25:58;13.60;99.90
18998;DHT22;9632;51.018;4.284;2023-04-29T00:28:24;13.60;99.90
18998;DHT22;9632;51.018;4.284;2023-04-29T00:30:50;13.60;99.90
18998;DHT22;9632;51.018;4.284;2023-04-29T00:33:15;13.60;99.90
18998;DHT22;9632;51.018;4.284;2023-04-29T00:35:41;13.50;99.90
18998;DHT22;9632;51.018;4.284;2023-04-29T00:38:07;13.50;99.90
18998;DHT22;9632;51.018;4.284;2023-04-29T00:40:32;13.50;99.90
18998;DHT22;9632;51.018;4.284;2023-04-29T00:42:58;13.50;99.90
18998;DHT22;9632;51.018;4.284;2023-04-29T00:45:24;13.50;99.90
18998;DHT22;9632;51.018;4.284;2023-04-29T00:47:50;13.50;99.90
18998;DHT22;9632;51.018;4.284;2023-04-29T00:50:17;13.50;99.90
18998;DHT22;9632;51.018;4.284;2023-04-29T00:52:43;13.50;99.90
18998;DHT22;9632;51.018;4.284;2023-04-29T00:55:10;13.50;99.90
18998;DHT22;9632;51.018;4.284;2023-04-29T00:57:37;13.50;99.90
18998;DHT22;9632;51.018;4.284;2023-04-29T01:00:04;13.40;99.90
18998;DHT22;9632;51.018;4.284;2023-04-29T01:02:30;13.40;99.90
18998;DHT22;9632;51.018;4.284;2023-04-29T01:04:56;13.40;99.90
18998;DHT22;9632;51.018;4.284;2023-04-29T01:07:33;13.40;99.90
18998;DHT22;9632;51.018;4.284;2023-04-29T01:10:05;13.40;99.90
18998;DHT22;9632;51.018;4.284;2023-04-29T01:13:08;13.30;99.90
18998;DHT22;9632;51.018;4.284;2023-04-29T01:15:51;13.30;99.90
18998;DHT22;9632;51.018;4.284;2023-04-29T01:18:53;13.20;99.90
18998;DHT22;9632;51.018;4.284;2023-04-29T01:21:19;13.10;99.90
18998;DHT22;9632;51.018;4.284;2023-04-29T01:23:45;13.10;99.90
18998;DHT22;9632;51.018;4.284;2023-04-29T01:26:11;13.10;99.90
18998;DHT22;9632;51.018;4.284;2023-04-29T01:28:49;13.00;99.90
18998;DHT22;9632;51.018;4.284;2023-04-29T01:31:27;13.00;99.90
18998;DHT22;9632;51.018;4.284;2023-04-29T01:34:38;13.10;99.90
18998;DHT22;9632;51.018;4.284;2023-04-29T01:43:24;13.00;99.90
18998;DHT22;9632;51.018;4.284;2023-04-29T01:45:52;13.00;99.90
18998;DHT22;9632;51.018;4.284;2023-04-29T01:48:20;13.00;99.90
18998;DHT22;9632;51.018;4.284;2023-04-29T01:50:47;12.90;99.90
18998;DHT22;9632;51.018;4.284;2023-04-29T01:53:12;12.90;99.90
18998;DHT22;9632;51.018;4.284;2023-04-29T01:55:38;12.90;99.90
18998;DHT22;9632;51.018;4.284;2023-04-29T01:58:04;12.90;99.90
18998;DHT22;9632;51.018;4.284;2023-04-29T02:00:29;12.90;99.90
18998;DHT22;9632;51.018;4.284;2023-04-29T02:02:55;12.90;99.90
18998;DHT22;9632;51.018;4.284;2023-04-29T02:05:20;13.00;99.90
18998;DHT22;9632;51.018;4.284;2023-04-29T02:07:46;12.90;99.90
18998;DHT22;9632;51.018;4.284;2023-04-29T02:10:12;12.90;99.90
18998;DHT22;9632;51.018;4.284;2023-04-29T02:12:38;12.90;99.90
18998;DHT22;9632;51.018;4.284;2023-04-29T02:15:04;12.90;99.90
18998;DHT22;9632;51.018;4.284;2023-04-29T02:17:29;12.90;99.90
18998;DHT22;9632;51.018;4.284;2023-04-29T02:19:57;12.80;99.90
18998;DHT22;9632;51.018;4.284;2023-04-29T02:22:23;12.80;99.90
18998;DHT22;9632;51.018;4.284;2023-04-29T02:24:48;12.80;99.90
18998;DHT22;9632;51.018;4.284;2023-04-29T02:27:14;12.80;99.90
18998;DHT22;9632;51.018;4.284;2023-04-29T02:29:40;12.80;99.90
18998;DHT22;9632;51.018;4.284;2023-04-29T02:32:05;12.80;99.90
18998;DHT22;9632;51.018;4.284;2023-04-29T02:34:31;12.80;99.90
18998;DHT22;9632;51.018;4.284;2023-04-29T02:36:56;12.70;99.90
18998;DHT22;9632;51.018;4.284;2023-04-29T02:39:23;12.70;99.90
18998;DHT22;9632;51.018;4.284;2023-04-29T02:41:49;12.70;99.90
18998;DHT22;9632;51.018;4.284;2023-04-29T02:44:14;12.70;99.90
18998;DHT22;9632;51.018;4.284;2023-04-29T02:46:43;12.70;99.90
18998;DHT22;9632;51.018;4.284;2023-04-29T02:49:11;12.70;99.90
18998;DHT22;9632;51.018;4.284;2023-04-29T02:51:37;12.60;99.90
18998;DHT22;9632;51.018;4.284;2023-04-29T02:54:03;12.60;99.90
18998;DHT22;9632;51.018;4.284;2023-04-29T02:56:28;12.60;99.90
18998;DHT22;9632;51.018;4.284;2023-04-29T02:58:54;12.70;99.90
18998;DHT22;9632;51.018;4.284;2023-04-29T03:01:20;12.70;99.90
18998;DHT22;9632;51.018;4.284;2023-04-29T03:03:46;12.70;99.90
18998;DHT22;9632;51.018;4.284;2023-04-29T03:06:11;12.70;99.90
18998;DHT22;9632;51.018;4.284;2023-04-29T03:08:37;12.80;99.90
18998;DHT22;9632;51.018;4.284;2023-04-29T03:11:03;12.80;99.90
18998;DHT22;9632;51.018;4.284;2023-04-29T03:13:28;12.80;99.90
18998;DHT22;9632;51.018;4.284;2023-04-29T03:15:54;12.70;99.90
18998;DHT22;9632;51.018;4.284;2023-04-29T03:18:22;12.70;99.90
18998;DHT22;9632;51.018;4.284;2023-04-29T03:20:48;12.70;99.90
18998;DHT22;9632;51.018;4.284;2023-04-29T03:23:14;12.70;99.90
18998;DHT22;9632;51.018;4.284;2023-04-29T03:25:39;12.70;99.90
18998;DHT22;9632;51.018;4.284;2023-04-29T03:28:06;12.70;99.90
18998;DHT22;9632;51.018;4.284;2023-04-29T03:30:32;12.70;99.90
18998;DHT22;9632;51.018;4.284;2023-04-29T03:33:00;12.70;99.90
18998;DHT22;9632;51.018;4.284;2023-04-29T03:35:25;12.70;99.90
18998;DHT22;9632;51.018;4.284;2023-04-29T03:37:51;12.70;99.90
18998;DHT22;9632;51.018;4.284;2023-04-29T03:40:18;12.70;99.90
18998;DHT22;9632;51.018;4.284;2023-04-29T03:42:43;12.70;99.90
18998;DHT22;9632;51.018;4.284;2023-04-29T03:45:09;12.60;99.90
18998;DHT22;9632;51.018;4.284;2023-04-29T03:47:37;12.60;99.90
18998;DHT22;9632;51.018;4.284;2023-04-29T03:50:03;12.60;99.90
18998;DHT22;9632;51.018;4.284;2023-04-29T03:52:29;12.60;99.90
18998;DHT22;9632;51.018;4.284;2023-04-29T03:54:55;12.60;99.90
18998;DHT22;9632;51.018;4.284;2023-04-29T03:57:20;12.60;99.90
18998;DHT22;9632;51.018;4.284;2023-04-29T03:59:46;12.60;99.90
18998;DHT22;9632;51.018;4.284;2023-04-29T04:02:15;12.60;99.90
18998;DHT22;9632;51.018;4.284;2023-04-29T04:04:40;12.60;99.90
18998;DHT22;9632;51.018;4.284;2023-04-29T04:07:06;12.60;99.90
18998;DHT22;9632;51.018;4.284;2023-04-29T04:09:32;12.50;99.90
18998;DHT22;9632;51.018;4.284;2023-04-29T04:11:58;12.50;99.90
18998;DHT22;9632;51.018;4.284;2023-04-29T04:14:24;12.40;99.90
18998;DHT22;9632;51.018;4.284;2023-04-29T04:16:50;12.40;99.90
18998;DHT22;9632;51.018;4.284;2023-04-29T04:19:16;12.40;99.90
18998;DHT22;9632;51.018;4.284;2023-04-29T04:21:41;12.30;99.90
18998;DHT22;9632;51.018;4.284;2023-04-29T04:24:07;12.30;99.90
18998;DHT22;9632;51.018;4.284;2023-04-29T04:26:33;12.20;99.90
18998;DHT22;9632;51.018;4.284;2023-04-29T04:28:58;12.20;99.90
18998;DHT22;9632;51.018;4.284;2023-04-29T04:31:24;12.20;99.90
18998;DHT22;9632;51.018;4.284;2023-04-29T04:33:50;12.30;99.90
18998;DHT22;9632;51.018;4.284;2023-04-29T04:36:15;12.30;99.90
18998;DHT22;9632;51.018;4.284;2023-04-29T04:38:41;12.30;99.90
18998;DHT22;9632;51.018;4.284;2023-04-29T04:41:07;12.30;99.90
18998;DHT22;9632;51.018;4.284;2023-04-29T04:43:32;12.40;99.90
18998;DHT22;9632;51.018;4.284;2023-04-29T04:45:58;12.40;99.90
18998;DHT22;9632;51.018;4.284;2023-04-29T04:48:24;12.40;99.90
18998;DHT22;9632;51.018;4.284;2023-04-29T04:50:49;12.40;99.90
18998;DHT22;9632;51.018;4.284;2023-04-29T04:53:15;12.40;99.90
18998;DHT22;9632;51.018;4.284;2023-04-29T04:55:41;12.40;99.90
18998;DHT22;9632;51.018;4.284;2023-04-29T04:58:07;12.40;99.90
18998;DHT22;9632;51.018;4.284;2023-04-29T05:00:32;12.40;99.90
18998;DHT22;9632;51.018;4.284;2023-04-29T05:02:58;12.40;99.90
18998;DHT22;9632;51.018;4.284;2023-04-29T05:05:24;12.40;99.90
18998;DHT22;9632;51.018;4.284;2023-04-29T05:07:49;12.40;99.90
18998;DHT22;9632;51.018;4.284;2023-04-29T05:10:15;12.40;99.90
18998;DHT22;9632;51.018;4.284;2023-04-29T05:12:41;12.40;99.90
18998;DHT22;9632;51.018;4.284;2023-04-29T05:15:07;12.50;99.90
18998;DHT22;9632;51.018;4.284;2023-04-29T05:17:33;12.40;99.90
18998;DHT22;9632;51.018;4.284;2023-04-29T05:20:00;12.40;99.90
18998;DHT22;9632;51.018;4.284;2023-04-29T05:22:26;12.40;99.90
18998;DHT22;9632;51.018;4.284;2023-04-29T05:24:51;12.40;99.90
18998;DHT22;9632;51.018;4.284;2023-04-29T05:27:18;12.40;99.90
18998;DHT22;9632;51.018;4.284;2023-04-29T05:29:44;12.40;99.90
18998;DHT22;9632;51.018;4.284;2023-04-29T05:32:10;12.40;99.90
18998;DHT22;9632;51.018;4.284;2023-04-29T05:34:37;12.20;99.90
18998;DHT22;9632;51.018;4.284;2023-04-29T05:37:03;12.20;99.90
18998;DHT22;9632;51.018;4.284;2023-04-29T05:39:28;12.30;99.90
18998;DHT22;9632;51.018;4.284;2023-04-29T05:41:54;12.30;99.90
18998;DHT22;9632;51.018;4.284;2023-04-29T05:44:20;12.30;99.90
18998;DHT22;9632;51.018;4.284;2023-04-29T05:46:45;12.30;99.90
18998;DHT22;9632;51.018;4.284;2023-04-29T05:49:12;12.20;99.90
18998;DHT22;9632;51.018;4.284;2023-04-29T05:51:38;12.20;99.90
18998;DHT22;9632;51.018;4.284;2023-04-29T05:54:04;12.20;99.90
18998;DHT22;9632;51.018;4.284;2023-04-29T05:56:30;12.30;99.90
18998;DHT22;9632;51.018;4.284;2023-04-29T05:58:56;12.30;99.90
18998;DHT22;9632;51.018;4.284;2023-04-29T06:01:21;12.30;99.90
18998;DHT22;9632;51.018;4.284;2023-04-29T06:03:47;12.30;99.90
18998;DHT22;9632;51.018;4.284;2023-04-29T06:06:15;12.20;99.90
18998;DHT22;9632;51.018;4.284;2023-04-29T06:08:41;12.20;99.90
18998;DHT22;9632;51.018;4.284;2023-04-29T06:11:07;12.20;99.90
18998;DHT22;9632;51.018;4.284;2023-04-29T06:13:33;12.30;99.90
18998;DHT22;9632;51.018;4.284;2023-04-29T06:15:58;12.30;99.90
18998;DHT22;9632;51.018;4.284;2023-04-29T06:18:24;12.30;99.90
18998;DHT22;9632;51.018;4.284;2023-04-29T06:20:50;12.30;99.90
18998;DHT22;9632;51.018;4.284;2023-04-29T06:23:15;12.30;99.90
18998;DHT22;9632;51.018;4.284;2023-04-29T06:25:41;12.30;99.90
18998;DHT22;9632;51.018;4.284;2023-04-29T06:28:13;12.40;99.90
18998;DHT22;9632;51.018;4.284;2023-04-29T06:30:40;12.40;99.90
18998;DHT22;9632;51.018;4.284;2023-04-29T06:33:06;12.40;99.90
18998;DHT22;9632;51.018;4.284;2023-04-29T06:35:32;12.40;99.90
18998;DHT22;9632;51.018;4.284;2023-04-29T06:37:58;12.40;99.90
18998;DHT22;9632;51.018;4.284;2023-04-29T06:40:23;12.40;99.90
18998;DHT22;9632;51.018;4.284;2023-04-29T06:42:49;12.40;99.90
18998;DHT22;9632;51.018;4.284;2023-04-29T06:45:16;12.40;99.90
18998;DHT22;9632;51.018;4.284;2023-04-29T06:47:42;12.40;99.90
18998;DHT22;9632;51.018;4.284;2023-04-29T06:50:08;12.50;99.90
18998;DHT22;9632;51.018;4.284;2023-04-29T06:52:34;12.50;99.90
18998;DHT22;9632;51.018;4.284;2023-04-29T06:55:00;12.50;99.90
18998;DHT22;9632;51.018;4.284;2023-04-29T06:57:25;12.50;99.90
18998;DHT22;9632;51.018;4.284;2023-04-29T06:59:52;12.60;99.90
18998;DHT22;9632;51.018;4.284;2023-04-29T07:02:18;12.60;99.90
18998;DHT22;9632;51.018;4.284;2023-04-29T07:04:44;12.60;99.90
18998;DHT22;9632;51.018;4.284;2023-04-29T07:07:10;12.60;99.90
18998;DHT22;9632;51.018;4.284;2023-04-29T07:09:36;12.70;99.90
18998;DHT22;9632;51.018;4.284;2023-04-29T07:12:02;12.60;99.90
18998;DHT22;9632;51.018;4.284;2023-04-29T07:14:28;12.60;99.90
18998;DHT22;9632;51.018;4.284;2023-04-29T07:16:54;12.70;99.90
18998;DHT22;9632;51.018;4.284;2023-04-29T07:19:19;12.70;99.90
18998;DHT22;9632;51.018;4.284;2023-04-29T07:21:45;12.70;99.90
18998;DHT22;9632;51.018;4.284;2023-04-29T07:24:11;12.70;99.90
18998;DHT22;9632;51.018;4.284;2023-04-29T07:26:37;12.80;99.90
18998;DHT22;9632;51.018;4.284;2023-04-29T07:29:02;12.80;99.90
18998;DHT22;9632;51.018;4.284;2023-04-29T07:31:28;12.80;99.90
18998;DHT22;9632;51.018;4.284;2023-04-29T07:33:54;12.80;99.90
18998;DHT22;9632;51.018;4.284;2023-04-29T07:36:20;12.80;99.90
18998;DHT22;9632;51.018;4.284;2023-04-29T07:38:46;12.80;99.90
18998;DHT22;9632;51.018;4.284;2023-04-29T07:41:11;12.80;99.90
18998;DHT22;9632;51.018;4.284;2023-04-29T07:43:37;12.90;99.90
18998;DHT22;9632;51.018;4.284;2023-04-29T07:46:03;12.90;99.90
18998;DHT22;9632;51.018;4.284;2023-04-29T07:48:28;13.00;99.90
18998;DHT22;9632;51.018;4.284;2023-04-29T07:50:54;13.00;99.90
18998;DHT22;9632;51.018;4.284;2023-04-29T07:53:19;13.10;99.90
18998;DHT22;9632;51.018;4.284;2023-04-29T07:55:46;13.10;99.90
18998;DHT22;9632;51.018;4.284;2023-04-29T07:58:12;13.10;99.90
18998;DHT22;9632;51.018;4.284;2023-04-29T08:00:37;13.10;99.90
18998;DHT22;9632;51.018;4.284;2023-04-29T08:03:03;13.20;99.90
18998;DHT22;9632;51.018;4.284;2023-04-29T08:05:29;13.20;99.90
18998;DHT22;9632;51.018;4.284;2023-04-29T08:07:55;13.20;99.90
18998;DHT22;9632;51.018;4.284;2023-04-29T08:10:20;13.30;99.90
18998;DHT22;9632;51.018;4.284;2023-04-29T08:12:49;13.40;99.90
18998;DHT22;9632;51.018;4.284;2023-04-29T08:15:15;13.50;99.90
18998;DHT22;9632;51.018;4.284;2023-04-29T08:17:42;13.50;99.90
18998;DHT22;9632;51.018;4.284;2023-04-29T08:20:08;13.60;99.90
18998;DHT22;9632;51.018;4.284;2023-04-29T08:22:34;13.60;99.90
18998;DHT22;9632;51.018;4.284;2023-04-29T08:25:01;13.70;99.90
18998;DHT22;9632;51.018;4.284;2023-04-29T08:27:27;13.70;99.90
18998;DHT22;9632;51.018;4.284;2023-04-29T08:29:53;13.80;99.90
18998;DHT22;9632;51.018;4.284;2023-04-29T08:32:20;13.80;99.90
18998;DHT22;9632;51.018;4.284;2023-04-29T08:34:46;13.90;99.90
18998;DHT22;9632;51.018;4.284;2023-04-29T08:37:12;13.90;99.90
18998;DHT22;9632;51.018;4.284;2023-04-29T08:39:37;14.00;99.90
18998;DHT22;9632;51.018;4.284;2023-04-29T08:42:09;14.10;99.90
18998;DHT22;9632;51.018;4.284;2023-04-29T08:44:35;14.10;99.90
18998;DHT22;9632;51.018;4.284;2023-04-29T08:47:02;14.20;99.90
18998;DHT22;9632;51.018;4.284;2023-04-29T08:49:28;14.20;99.90
18998;DHT22;9632;51.018;4.284;2023-04-29T08:51:54;14.30;99.90
18998;DHT22;9632;51.018;4.284;2023-04-29T08:54:20;14.30;99.90
18998;DHT22;9632;51.018;4.284;2023-04-29T08:56:46;14.40;99.90
18998;DHT22;9632;51.018;4.284;2023-04-29T08:59:14;14.40;99.90
18998;DHT22;9632;51.018;4.284;2023-04-29T09:01:42;14.40;99.90
18998;DHT22;9632;51.018;4.284;2023-04-29T09:06:42;14.50;99.90
18998;DHT22;9632;51.018;4.284;2023-04-29T09:09:08;14.50;99.90
18998;DHT22;9632;51.018;4.284;2023-04-29T09:11:34;14.60;99.90
18998;DHT22;9632;51.018;4.284;2023-04-29T09:14:01;14.60;99.90
18998;DHT22;9632;51.018;4.284;2023-04-29T09:16:28;14.60;99.90
18998;DHT22;9632;51.018;4.284;2023-04-29T09:18:55;14.70;99.90
18998;DHT22;9632;51.018;4.284;2023-04-29T09:21:22;14.70;99.90
18998;DHT22;9632;51.018;4.284;2023-04-29T09:23:52;14.80;99.90
18998;DHT22;9632;51.018;4.284;2023-04-29T09:26:18;14.90;99.90
18998;DHT22;9632;51.018;4.284;2023-04-29T09:28:44;15.00;99.90
18998;DHT22;9632;51.018;4.284;2023-04-29T09:31:11;15.10;99.90
18998;DHT22;9632;51.018;4.284;2023-04-29T09:33:50;15.00;99.90
18998;DHT22;9632;51.018;4.284;2023-04-29T09:39:02;15.00;99.90
18998;DHT22;9632;51.018;4.284;2023-04-29T09:41:30;15.10;99.90
18998;DHT22;9632;51.018;4.284;2023-04-29T09:44:06;15.10;99.90
18998;DHT22;9632;51.018;4.284;2023-04-29T09:46:33;15.10;99.90
18998;DHT22;9632;51.018;4.284;2023-04-29T09:49:00;15.10;99.90
18998;DHT22;9632;51.018;4.284;2023-04-29T09:51:25;15.20;99.90
18998;DHT22;9632;51.018;4.284;2023-04-29T09:53:51;15.30;99.90
18998;DHT22;9632;51.018;4.284;2023-04-29T09:56:17;15.40;99.90
18998;DHT22;9632;51.018;4.284;2023-04-29T09:58:42;15.60;99.90
18998;DHT22;9632;51.018;4.284;2023-04-29T10:01:08;15.60;99.90
18998;DHT22;9632;51.018;4.284;2023-04-29T10:03:36;15.60;99.90
18998;DHT22;9632;51.018;4.284;2023-04-29T10:06:03;15.70;99.90
18998;DHT22;9632;51.018;4.284;2023-04-29T10:08:30;15.70;99.90
18998;DHT22;9632;51.018;4.284;2023-04-29T10:11:01;15.80;99.90
18998;DHT22;9632;51.018;4.284;2023-04-29T10:13:27;15.80;99.90
18998;DHT22;9632;51.018;4.284;2023-04-29T10:18:51;15.80;99.90
18998;DHT22;9632;51.018;4.284;2023-04-29T10:21:22;15.80;99.90
18998;DHT22;9632;51.018;4.284;2023-04-29T10:23:49;15.80;99.90
18998;DHT22;9632;51.018;4.284;2023-04-29T10:26:15;15.80;99.90
18998;DHT22;9632;51.018;4.284;2023-04-29T10:28:43;15.70;99.90
18998;DHT22;9632;51.018;4.284;2023-04-29T10:31:11;15.80;99.90
18998;DHT22;9632;51.018;4.284;2023-04-29T10:33:39;15.80;99.90
18998;DHT22;9632;51.018;4.284;2023-04-29T10:36:09;15.90;99.90
18998;DHT22;9632;51.018;4.284;2023-04-29T10:38:46;16.10;99.90
18998;DHT22;9632;51.018;4.284;2023-04-29T10:41:22;16.10;99.90
18998;DHT22;9632;51.018;4.284;2023-04-29T10:43:52;16.20;99.90
18998;DHT22;9632;51.018;4.284;2023-04-29T10:46:22;16.20;99.90
18998;DHT22;9632;51.018;4.284;2023-04-29T10:48:50;16.20;99.90
18998;DHT22;9632;51.018;4.284;2023-04-29T10:51:32;16.20;99.90
18998;DHT22;9632;51.018;4.284;2023-04-29T10:54:15;16.30;99.90
18998;DHT22;9632;51.018;4.284;2023-04-29T10:56:43;16.20;99.90
18998;DHT22;9632;51.018;4.284;2023-04-29T10:59:10;16.30;99.90
18998;DHT22;9632;51.018;4.284;2023-04-29T11:04:14;16.10;99.90
18998;DHT22;9632;51.018;4.284;2023-04-29T11:06:41;16.10;99.90
18998;DHT22;9632;51.018;4.284;2023-04-29T11:09:10;16.20;99.90
18998;DHT22;9632;51.018;4.284;2023-04-29T11:11:44;16.20;99.90
18998;DHT22;9632;51.018;4.284;2023-04-29T11:14:12;16.20;99.90
18998;DHT22;9632;51.018;4.284;2023-04-29T11:17:08;16.30;99.90
18998;DHT22;9632;51.018;4.284;2023-04-29T11:19:35;16.30;99.90
18998;DHT22;9632;51.018;4.284;2023-04-29T11:22:10;16.30;99.90
18998;DHT22;9632;51.018;4.284;2023-04-29T11:24:47;16.20;99.90
18998;DHT22;9632;51.018;4.284;2023-04-29T11:27:14;16.20;99.90
18998;DHT22;9632;51.018;4.284;2023-04-29T11:29:40;16.30;99.90
18998;DHT22;9632;51.018;4.284;2023-04-29T11:32:06;16.40;99.90
18998;DHT22;9632;51.018;4.284;2023-04-29T11:34:32;16.40;99.90
18998;DHT22;9632;51.018;4.284;2023-04-29T11:36:58;16.40;99.90
18998;DHT22;9632;51.018;4.284;2023-04-29T11:39:25;16.40;99.90
18998;DHT22;9632;51.018;4.284;2023-04-29T11:41:51;16.50;99.90
18998;DHT22;9632;51.018;4.284;2023-04-29T11:44:20;16.40;99.90
18998;DHT22;9632;51.018;4.284;2023-04-29T11:46:49;16.40;99.90
18998;DHT22;9632;51.018;4.284;2023-04-29T11:49:14;16.40;99.90
18998;DHT22;9632;51.018;4.284;2023-04-29T11:51:40;16.40;99.90
18998;DHT22;9632;51.018;4.284;2023-04-29T11:54:06;16.40;99.90
18998;DHT22;9632;51.018;4.284;2023-04-29T11:56:32;16.40;99.90
18998;DHT22;9632;51.018;4.284;2023-04-29T11:58:58;16.50;99.90
18998;DHT22;9632;51.018;4.284;2023-04-29T12:01:25;16.60;99.90
18998;DHT22;9632;51.018;4.284;2023-04-29T12:03:56;16.70;99.90
18998;DHT22;9632;51.018;4.284;2023-04-29T12:06:27;16.80;99.90
18998;DHT22;9632;51.018;4.284;2023-04-29T12:08:53;16.90;99.90
18998;DHT22;9632;51.018;4.284;2023-04-29T12:11:19;17.00;99.90
18998;DHT22;9632;51.018;4.284;2023-04-29T12:13:45;17.00;99.90
18998;DHT22;9632;51.018;4.284;2023-04-29T12:16:11;17.00;99.90
18998;DHT22;9632;51.018;4.284;2023-04-29T12:18:37;17.10;99.90
18998;DHT22;9632;51.018;4.284;2023-04-29T12:21:03;17.20;99.90
18998;DHT22;9632;51.018;4.284;2023-04-29T12:23:29;17.20;99.90
18998;DHT22;9632;51.018;4.284;2023-04-29T12:25:57;17.30;99.90
18998;DHT22;9632;51.018;4.284;2023-04-29T12:28:24;17.30;99.90
18998;DHT22;9632;51.018;4.284;2023-04-29T12:30:51;17.30;99.90
18998;DHT22;9632;51.018;4.284;2023-04-29T12:33:28;17.30;99.90
18998;DHT22;9632;51.018;4.284;2023-04-29T12:35:55;17.30;99.90
18998;DHT22;9632;51.018;4.284;2023-04-29T12:38:24;17.30;99.90
18998;DHT22;9632;51.018;4.284;2023-04-29T12:40:58;17.30;99.90
18998;DHT22;9632;51.018;4.284;2023-04-29T12:43:31;17.30;99.90
18998;DHT22;9632;51.018;4.284;2023-04-29T12:46:07;17.40;99.90
18998;DHT22;9632;51.018;4.284;2023-04-29T12:48:34;17.40;99.90
18998;DHT22;9632;51.018;4.284;2023-04-29T12:51:02;17.40;99.90
18998;DHT22;9632;51.018;4.284;2023-04-29T12:53:29;17.40;99.90
18998;DHT22;9632;51.018;4.284;2023-04-29T12:55:55;17.40;99.90
18998;DHT22;9632;51.018;4.284;2023-04-29T12:58:21;17.40;99.90
18998;DHT22;9632;51.018;4.284;2023-04-29T13:00:47;17.50;99.90
18998;DHT22;9632;51.018;4.284;2023-04-29T13:03:12;17.60;99.90
18998;DHT22;9632;51.018;4.284;2023-04-29T13:05:39;17.60;99.90
18998;DHT22;9632;51.018;4.284;2023-04-29T13:08:05;17.70;99.90
18998;DHT22;9632;51.018;4.284;2023-04-29T13:10:32;17.70;99.90
18998;DHT22;9632;51.018;4.284;2023-04-29T13:12:58;17.70;99.90
18998;DHT22;9632;51.018;4.284;2023-04-29T13:15:24;17.80;99.90
18998;DHT22;9632;51.018;4.284;2023-04-29T13:17:50;17.90;99.90
18998;DHT22;9632;51.018;4.284;2023-04-29T13:20:16;17.90;99.90
18998;DHT22;9632;51.018;4.284;2023-04-29T13:22:42;18.00;99.90
18998;DHT22;9632;51.018;4.284;2023-04-29T13:25:09;18.00;99.90
18998;DHT22;9632;51.018;4.284;2023-04-29T13:27:39;18.00;99.90
18998;DHT22;9632;51.018;4.284;2023-04-29T13:30:05;18.10;99.90
18998;DHT22;9632;51.018;4.284;2023-04-29T13:32:31;18.10;99.90
18998;DHT22;9632;51.018;4.284;2023-04-29T13:34:57;18.10;99.90
18998;DHT22;9632;51.018;4.284;2023-04-29T13:37:23;18.00;99.90
18998;DHT22;9632;51.018;4.284;2023-04-29T13:39:48;18.00;99.90
18998;DHT22;9632;51.018;4.284;2023-04-29T13:42:14;17.90;99.90
18998;DHT22;9632;51.018;4.284;2023-04-29T13:44:40;17.90;99.90
18998;DHT22;9632;51.018;4.284;2023-04-29T13:47:14;17.90;99.90
18998;DHT22;9632;51.018;4.284;2023-04-29T13:49:41;17.90;99.90
18998;DHT22;9632;51.018;4.284;2023-04-29T13:52:09;17.90;99.90
18998;DHT22;9632;51.018;4.284;2023-04-29T13:54:35;17.80;99.90
18998;DHT22;9632;51.018;4.284;2023-04-29T13:57:01;17.80;99.90
18998;DHT22;9632;51.018;4.284;2023-04-29T13:59:29;17.80;99.90
18998;DHT22;9632;51.018;4.284;2023-04-29T14:01:55;17.80;99.90
18998;DHT22;9632;51.018;4.284;2023-04-29T14:04:21;17.80;99.90
18998;DHT22;9632;51.018;4.284;2023-04-29T14:06:47;17.80;99.90
18998;DHT22;9632;51.018;4.284;2023-04-29T14:09:13;17.80;99.90
18998;DHT22;9632;51.018;4.284;2023-04-29T14:11:38;17.80;99.90
18998;DHT22;9632;51.018;4.284;2023-04-29T14:14:04;17.80;99.90
18998;DHT22;9632;51.018;4.284;2023-04-29T14:16:30;17.90;99.90
18998;DHT22;9632;51.018;4.284;2023-04-29T14:18:56;17.90;99.90
18998;DHT22;9632;51.018;4.284;2023-04-29T14:21:22;18.00;99.90
18998;DHT22;9632;51.018;4.284;2023-04-29T14:23:48;17.90;99.90
18998;DHT22;9632;51.018;4.284;2023-04-29T14:26:14;17.90;99.90
18998;DHT22;9632;51.018;4.284;2023-04-29T14:28:40;18.00;99.90
18998;DHT22;9632;51.018;4.284;2023-04-29T14:31:05;18.00;99.90
18998;DHT22;9632;51.018;4.284;2023-04-29T14:33:31;18.00;99.90
18998;DHT22;9632;51.018;4.284;2023-04-29T14:35:57;18.00;99.90
18998;DHT22;9632;51.018;4.284;2023-04-29T14:38:23;18.00;99.90
18998;DHT22;9632;51.018;4.284;2023-04-29T14:40:48;18.00;99.90
18998;DHT22;9632;51.018;4.284;2023-04-29T14:43:14;17.90;99.90
18998;DHT22;9632;51.018;4.284;2023-04-29T14:45:40;17.90;99.90
18998;DHT22;9632;51.018;4.284;2023-04-29T14:48:06;17.90;99.90
18998;DHT22;9632;51.018;4.284;2023-04-29T14:50:32;17.90;99.90
18998;DHT22;9632;51.018;4.284;2023-04-29T14:52:57;17.90;99.90
18998;DHT22;9632;51.018;4.284;2023-04-29T14:55:24;17.90;99.90
18998;DHT22;9632;51.018;4.284;2023-04-29T14:57:50;17.90;99.90
18998;DHT22;9632;51.018;4.284;2023-04-29T15:00:16;18.00;99.90
18998;DHT22;9632;51.018;4.284;2023-04-29T15:02:41;18.00;99.90
18998;DHT22;9632;51.018;4.284;2023-04-29T15:05:07;18.10;99.90
18998;DHT22;9632;51.018;4.284;2023-04-29T15:07:33;18.10;99.90
18998;DHT22;9632;51.018;4.284;2023-04-29T15:09:58;18.10;99.90
18998;DHT22;9632;51.018;4.284;2023-04-29T15:12:24;18.10;99.90
18998;DHT22;9632;51.018;4.284;2023-04-29T15:14:50;18.10;99.90
18998;DHT22;9632;51.018;4.284;2023-04-29T15:17:17;18.10;99.90
18998;DHT22;9632;51.018;4.284;2023-04-29T15:19:43;18.10;99.90
18998;DHT22;9632;51.018;4.284;2023-04-29T15:22:09;18.10;99.90
18998;DHT22;9632;51.018;4.284;2023-04-29T15:24:35;18.10;99.90
18998;DHT22;9632;51.018;4.284;2023-04-29T15:27:01;18.10;99.90
18998;DHT22;9632;51.018;4.284;2023-04-29T15:29:27;18.10;99.90
18998;DHT22;9632;51.018;4.284;2023-04-29T15:31:54;18.20;99.90
18998;DHT22;9632;51.018;4.284;2023-04-29T15:34:19;18.20;99.90
18998;DHT22;9632;51.018;4.284;2023-04-29T15:36:46;18.10;99.90
18998;DHT22;9632;51.018;4.284;2023-04-29T15:39:11;18.10;99.90
18998;DHT22;9632;51.018;4.284;2023-04-29T15:41:37;18.10;99.90
18998;DHT22;9632;51.018;4.284;2023-04-29T15:44:03;18.00;99.90
18998;DHT22;9632;51.018;4.284;2023-04-29T15:46:30;18.00;99.90
18998;DHT22;9632;51.018;4.284;2023-04-29T15:48:56;18.00;99.90
18998;DHT22;9632;51.018;4.284;2023-04-29T15:51:22;18.10;99.90
18998;DHT22;9632;51.018;4.284;2023-04-29T15:53:48;18.00;99.90
18998;DHT22;9632;51.018;4.284;2023-04-29T15:56:15;18.10;99.90
18998;DHT22;9632;51.018;4.284;2023-04-29T15:58:41;18.10;99.90
18998;DHT22;9632;51.018;4.284;2023-04-29T16:01:07;18.00;99.90